DAL2164 KDTW-KRDU
Flight info
| Callsign | DAL2164 |
|---|---|
| Flight time | 1h 13m |
| Altitude | 39000 |
| Route | LIDDS4 GRIVY NUSMM EKN FRIKY ALDAN4 |
| Aircraft | A319/M-SDE3FGHIRWY/LB1 |
Departure
| Time | 2026-05-07 14:38 |
|---|---|
| Airport | Detroit Metropolitan Wayne County Airport (KDTW) |
Arrival
| Time | 2026-05-07 15:52 |
|---|---|
| Airport | Raleigh-Durham International Airport (KRDU) |
| Time | Latitude | Longitude | Altitude | Speed | Heading |
|---|---|---|---|---|---|
| 2026-05-07 13:55 | 42.20406 | -83.36061 | 647 ft | 0 kts | 298° |
| 2026-05-07 14:25 | 42.20401 | -83.36049 | 646 ft | 4 kts | 296° |
| 2026-05-07 14:26 | 42.20391 | -83.36016 | 649 ft | 4 kts | 288° |
| 2026-05-07 14:26 | 42.20383 | -83.35981 | 649 ft | 4 kts | 278° |
| 2026-05-07 14:26 | 42.20383 | -83.35945 | 650 ft | 4 kts | 250° |
| 2026-05-07 14:26 | 42.20391 | -83.35927 | 648 ft | 0 kts | 209° |
| 2026-05-07 14:28 | 42.20391 | -83.35926 | 648 ft | 0 kts | 209° |
| 2026-05-07 14:29 | 42.20391 | -83.35927 | 648 ft | 1 kts | 209° |
| 2026-05-07 14:29 | 42.20368 | -83.35944 | 648 ft | 7 kts | 209° |
| 2026-05-07 14:29 | 42.20325 | -83.35976 | 646 ft | 7 kts | 208° |
| 2026-05-07 14:29 | 42.20278 | -83.36011 | 646 ft | 8 kts | 208° |
| 2026-05-07 14:30 | 42.20222 | -83.36016 | 648 ft | 9 kts | 179° |
| 2026-05-07 14:30 | 42.20167 | -83.35997 | 646 ft | 8 kts | 126° |
| 2026-05-07 14:30 | 42.20164 | -83.35917 | 646 ft | 9 kts | 88° |
| 2026-05-07 14:30 | 42.20166 | -83.35825 | 646 ft | 12 kts | 88° |
| 2026-05-07 14:31 | 42.20169 | -83.35695 | 646 ft | 15 kts | 89° |
| 2026-05-07 14:31 | 42.20171 | -83.35550 | 647 ft | 15 kts | 89° |
| 2026-05-07 14:31 | 42.20173 | -83.35409 | 647 ft | 15 kts | 89° |
| 2026-05-07 14:31 | 42.20175 | -83.35265 | 648 ft | 16 kts | 89° |
| 2026-05-07 14:32 | 42.20236 | -83.35160 | 649 ft | 15 kts | 29° |
| 2026-05-07 14:32 | 42.20331 | -83.35090 | 648 ft | 16 kts | 28° |
| 2026-05-07 14:32 | 42.20430 | -83.35017 | 648 ft | 16 kts | 28° |
| 2026-05-07 14:32 | 42.20536 | -83.35015 | 647 ft | 16 kts | 12° |
| 2026-05-07 14:33 | 42.20633 | -83.34948 | 647 ft | 16 kts | 28° |
| 2026-05-07 14:33 | 42.20739 | -83.34870 | 649 ft | 19 kts | 28° |
| 2026-05-07 14:33 | 42.20846 | -83.34756 | 649 ft | 20 kts | 68° |
| 2026-05-07 14:33 | 42.20947 | -83.34636 | 647 ft | 20 kts | 28° |
| 2026-05-07 14:34 | 42.21069 | -83.34546 | 647 ft | 20 kts | 29° |
| 2026-05-07 14:34 | 42.21196 | -83.34452 | 649 ft | 21 kts | 29° |
| 2026-05-07 14:34 | 42.21324 | -83.34357 | 647 ft | 21 kts | 28° |
| 2026-05-07 14:34 | 42.21453 | -83.34262 | 647 ft | 21 kts | 29° |
| 2026-05-07 14:35 | 42.21583 | -83.34168 | 647 ft | 22 kts | 19° |
| 2026-05-07 14:35 | 42.21737 | -83.34168 | 645 ft | 23 kts | 359° |
| 2026-05-07 14:35 | 42.21886 | -83.34139 | 649 ft | 22 kts | 29° |
| 2026-05-07 14:35 | 42.22020 | -83.34039 | 648 ft | 22 kts | 29° |
| 2026-05-07 14:36 | 42.22156 | -83.33940 | 647 ft | 22 kts | 28° |
| 2026-05-07 14:36 | 42.22292 | -83.33842 | 647 ft | 22 kts | 28° |
| 2026-05-07 14:36 | 42.22429 | -83.33742 | 648 ft | 22 kts | 28° |
| 2026-05-07 14:36 | 42.22567 | -83.33640 | 649 ft | 23 kts | 28° |
| 2026-05-07 14:37 | 42.22688 | -83.33550 | 647 ft | 18 kts | 29° |
| 2026-05-07 14:37 | 42.22803 | -83.33631 | 645 ft | 5 kts | 219° |
| 2026-05-07 14:37 | 42.22768 | -83.33660 | 645 ft | 10 kts | 210° |
| 2026-05-07 14:38 | 42.22498 | -83.33861 | 647 ft | 83 kts | 208° |
| 2026-05-07 14:38 | 42.21792 | -83.34380 | 650 ft | 145 kts | 208° |
| 2026-05-07 14:38 | 42.20867 | -83.35054 | 1142 ft | 150 kts | 210° |
| 2026-05-07 14:38 | 42.19929 | -83.35739 | 1839 ft | 155 kts | 212° |
| 2026-05-07 14:39 | 42.18905 | -83.36263 | 2492 ft | 167 kts | 193° |
| 2026-05-07 14:39 | 42.17646 | -83.36244 | 2825 ft | 193 kts | 178° |
| 2026-05-07 14:39 | 42.16231 | -83.36110 | 3259 ft | 217 kts | 180° |
| 2026-05-07 14:39 | 42.14639 | -83.35994 | 3811 ft | 242 kts | 180° |
| 2026-05-07 14:40 | 42.12879 | -83.35818 | 4492 ft | 262 kts | 174° |
| 2026-05-07 14:40 | 42.11178 | -83.34814 | 5473 ft | 277 kts | 143° |
| 2026-05-07 14:40 | 42.09989 | -83.32743 | 6458 ft | 287 kts | 114° |
| 2026-05-07 14:40 | 42.09661 | -83.30099 | 7468 ft | 290 kts | 90° |
| 2026-05-07 14:41 | 42.09662 | -83.27369 | 8474 ft | 295 kts | 90° |
| 2026-05-07 14:41 | 42.09578 | -83.24581 | 9385 ft | 302 kts | 92° |
| 2026-05-07 14:41 | 42.09462 | -83.21726 | 10239 ft | 311 kts | 92° |
| 2026-05-07 14:41 | 42.09322 | -83.18708 | 10620 ft | 335 kts | 93° |
| 2026-05-07 14:42 | 42.09161 | -83.15490 | 11133 ft | 351 kts | 94° |
| 2026-05-07 14:42 | 42.08998 | -83.12168 | 11880 ft | 359 kts | 94° |
| 2026-05-07 14:42 | 42.08841 | -83.08782 | 12657 ft | 367 kts | 94° |
| 2026-05-07 14:42 | 42.08691 | -83.05312 | 13419 ft | 374 kts | 93° |
| 2026-05-07 14:43 | 42.08545 | -83.01789 | 14128 ft | 381 kts | 93° |
| 2026-05-07 14:43 | 42.08398 | -82.98202 | 14825 ft | 386 kts | 94° |
| 2026-05-07 14:43 | 42.08248 | -82.94570 | 15520 ft | 391 kts | 94° |
| 2026-05-07 14:43 | 42.08095 | -82.90891 | 16229 ft | 396 kts | 94° |
| 2026-05-07 14:44 | 42.07939 | -82.87165 | 16927 ft | 401 kts | 94° |
| 2026-05-07 14:44 | 42.07781 | -82.83400 | 17627 ft | 405 kts | 94° |
| 2026-05-07 14:44 | 42.07617 | -82.79593 | 18309 ft | 410 kts | 94° |
| 2026-05-07 14:44 | 42.07447 | -82.75743 | 18903 ft | 415 kts | 95° |
| 2026-05-07 14:45 | 42.07045 | -82.71881 | 19485 ft | 418 kts | 105° |
| 2026-05-07 14:45 | 42.06341 | -82.68071 | 20083 ft | 422 kts | 107° |
| 2026-05-07 14:45 | 42.05620 | -82.64225 | 20683 ft | 426 kts | 107° |
| 2026-05-07 14:45 | 42.04891 | -82.60335 | 21292 ft | 431 kts | 107° |
| 2026-05-07 14:46 | 42.04156 | -82.56407 | 21861 ft | 436 kts | 107° |
| 2026-05-07 14:46 | 42.03414 | -82.52436 | 22440 ft | 440 kts | 108° |
| 2026-05-07 14:46 | 42.02667 | -82.48424 | 23010 ft | 445 kts | 108° |
| 2026-05-07 14:46 | 42.01921 | -82.44358 | 23579 ft | 450 kts | 108° |
| 2026-05-07 14:47 | 42.01174 | -82.40249 | 24009 ft | 455 kts | 108° |
| 2026-05-07 14:47 | 42.00419 | -82.36091 | 24425 ft | 460 kts | 108° |
| 2026-05-07 14:47 | 41.99655 | -82.31890 | 24830 ft | 465 kts | 108° |
| 2026-05-07 14:47 | 41.98879 | -82.27641 | 25233 ft | 470 kts | 108° |
| 2026-05-07 14:48 | 41.98090 | -82.23355 | 25626 ft | 475 kts | 109° |
| 2026-05-07 14:48 | 41.97288 | -82.19025 | 26014 ft | 480 kts | 109° |
| 2026-05-07 14:48 | 41.96272 | -82.14767 | 26392 ft | 478 kts | 119° |
| 2026-05-07 14:48 | 41.94814 | -82.10787 | 26760 ft | 473 kts | 129° |
| 2026-05-07 14:49 | 41.92960 | -82.07174 | 27135 ft | 467 kts | 139° |
| 2026-05-07 14:49 | 41.90785 | -82.03995 | 27520 ft | 459 kts | 148° |
| 2026-05-07 14:49 | 41.88362 | -82.01269 | 27909 ft | 454 kts | 153° |
| 2026-05-07 14:49 | 41.85862 | -81.98641 | 28307 ft | 457 kts | 154° |
| 2026-05-07 14:50 | 41.83346 | -81.96005 | 28699 ft | 461 kts | 154° |
| 2026-05-07 14:50 | 41.80809 | -81.93353 | 29086 ft | 464 kts | 154° |
| 2026-05-07 14:50 | 41.78255 | -81.90685 | 29455 ft | 467 kts | 154° |
| 2026-05-07 14:50 | 41.75680 | -81.87994 | 29825 ft | 471 kts | 154° |
| 2026-05-07 14:51 | 41.73092 | -81.85287 | 30157 ft | 474 kts | 154° |
| 2026-05-07 14:51 | 41.70486 | -81.82566 | 30451 ft | 476 kts | 154° |
| 2026-05-07 14:51 | 41.67853 | -81.79862 | 30748 ft | 478 kts | 155° |
| 2026-05-07 14:51 | 41.65186 | -81.77207 | 31032 ft | 479 kts | 156° |
| 2026-05-07 14:52 | 41.62526 | -81.74621 | 31306 ft | 480 kts | 156° |
| 2026-05-07 14:52 | 41.59805 | -81.72007 | 31581 ft | 483 kts | 156° |
| 2026-05-07 14:52 | 41.57070 | -81.69383 | 31860 ft | 485 kts | 156° |
| 2026-05-07 14:52 | 41.54329 | -81.66740 | 32132 ft | 488 kts | 156° |
| 2026-05-07 14:53 | 41.51585 | -81.64075 | 32500 ft | 488 kts | 155° |
| 2026-05-07 14:53 | 41.48846 | -81.61402 | 32888 ft | 487 kts | 155° |
| 2026-05-07 14:53 | 41.46114 | -81.58729 | 33277 ft | 487 kts | 155° |
| 2026-05-07 14:53 | 41.43381 | -81.56052 | 33661 ft | 487 kts | 156° |
| 2026-05-07 14:54 | 41.40647 | -81.53385 | 34033 ft | 487 kts | 156° |
| 2026-05-07 14:54 | 41.37911 | -81.50724 | 34345 ft | 487 kts | 156° |
| 2026-05-07 14:54 | 41.35175 | -81.48071 | 34656 ft | 487 kts | 156° |
| 2026-05-07 14:54 | 41.32439 | -81.45421 | 34936 ft | 487 kts | 156° |
| 2026-05-07 14:55 | 41.29701 | -81.42776 | 35213 ft | 486 kts | 156° |
| 2026-05-07 14:55 | 41.26959 | -81.40133 | 35493 ft | 487 kts | 156° |
| 2026-05-07 14:55 | 41.24221 | -81.37493 | 35771 ft | 487 kts | 156° |
| 2026-05-07 14:55 | 41.21483 | -81.34853 | 36044 ft | 487 kts | 156° |
| 2026-05-07 14:56 | 41.18742 | -81.32213 | 36310 ft | 486 kts | 156° |
| 2026-05-07 14:56 | 41.16005 | -81.29587 | 36565 ft | 486 kts | 156° |
| 2026-05-07 14:56 | 41.13261 | -81.26957 | 36815 ft | 486 kts | 156° |
| 2026-05-07 14:56 | 41.10516 | -81.24339 | 37050 ft | 484 kts | 159° |
| 2026-05-07 14:57 | 41.07662 | -81.22137 | 37281 ft | 467 kts | 168° |
| 2026-05-07 14:57 | 41.04694 | -81.20568 | 37522 ft | 451 kts | 176° |
| 2026-05-07 14:57 | 41.02673 | -81.19779 | 37677 ft | 449 kts | 177° |
| 2026-05-07 14:57 | 40.99672 | -81.18625 | 37893 ft | 449 kts | 177° |
| 2026-05-07 14:58 | 40.96670 | -81.17466 | 38106 ft | 449 kts | 177° |
| 2026-05-07 14:58 | 40.93669 | -81.16299 | 38318 ft | 450 kts | 177° |
| 2026-05-07 14:58 | 40.90671 | -81.15130 | 38527 ft | 450 kts | 177° |
| 2026-05-07 14:58 | 40.87666 | -81.13959 | 38711 ft | 450 kts | 177° |
| 2026-05-07 14:59 | 40.84668 | -81.12793 | 38867 ft | 450 kts | 177° |
| 2026-05-07 14:59 | 40.81658 | -81.11630 | 38973 ft | 450 kts | 177° |
| 2026-05-07 14:59 | 40.75647 | -81.09319 | 39011 ft | 450 kts | 177° |
| 2026-05-07 15:00 | 40.69641 | -81.07002 | 39021 ft | 449 kts | 177° |
| 2026-05-07 15:00 | 40.63683 | -81.04701 | 39021 ft | 449 kts | 178° |
| 2026-05-07 15:01 | 40.57683 | -81.02392 | 39018 ft | 449 kts | 178° |
| 2026-05-07 15:01 | 40.51650 | -81.00088 | 39019 ft | 449 kts | 178° |
| 2026-05-07 15:02 | 40.45694 | -80.97807 | 39015 ft | 448 kts | 178° |
| 2026-05-07 15:02 | 40.39666 | -80.95506 | 39011 ft | 448 kts | 178° |
| 2026-05-07 15:03 | 40.33676 | -80.93213 | 39007 ft | 448 kts | 178° |
| 2026-05-07 15:03 | 40.27690 | -80.90931 | 39002 ft | 448 kts | 178° |
| 2026-05-07 15:04 | 40.21745 | -80.88682 | 39013 ft | 447 kts | 179° |
| 2026-05-07 15:04 | 40.15767 | -80.86421 | 38993 ft | 447 kts | 179° |
| 2026-05-07 15:05 | 40.09806 | -80.84148 | 38994 ft | 446 kts | 179° |
| 2026-05-07 15:05 | 40.03844 | -80.81832 | 39005 ft | 453 kts | 175° |
| 2026-05-07 15:06 | 40.00908 | -80.80142 | 39002 ft | 467 kts | 168° |
| 2026-05-07 15:06 | 39.98002 | -80.78245 | 39002 ft | 467 kts | 168° |
| 2026-05-07 15:06 | 39.92203 | -80.74442 | 39005 ft | 466 kts | 168° |
| 2026-05-07 15:07 | 39.86404 | -80.70661 | 39007 ft | 465 kts | 169° |
| 2026-05-07 15:07 | 39.80612 | -80.66902 | 39014 ft | 465 kts | 169° |
| 2026-05-07 15:08 | 39.74828 | -80.63162 | 39007 ft | 464 kts | 169° |
| 2026-05-07 15:08 | 39.69043 | -80.59429 | 39004 ft | 464 kts | 169° |
| 2026-05-07 15:09 | 39.63256 | -80.55703 | 39005 ft | 464 kts | 170° |
| 2026-05-07 15:09 | 39.57474 | -80.51975 | 39005 ft | 464 kts | 170° |
| 2026-05-07 15:10 | 39.51701 | -80.48257 | 39007 ft | 463 kts | 170° |
| 2026-05-07 15:10 | 39.45929 | -80.44552 | 39007 ft | 463 kts | 171° |
| 2026-05-07 15:11 | 39.40169 | -80.40862 | 39015 ft | 461 kts | 171° |
| 2026-05-07 15:11 | 39.34416 | -80.37185 | 39012 ft | 461 kts | 171° |
| 2026-05-07 15:12 | 39.28674 | -80.33520 | 39013 ft | 460 kts | 172° |
| 2026-05-07 15:12 | 39.22944 | -80.29870 | 39013 ft | 459 kts | 172° |
| 2026-05-07 15:13 | 39.17219 | -80.26233 | 39011 ft | 458 kts | 172° |
| 2026-05-07 15:13 | 39.11508 | -80.22607 | 39012 ft | 457 kts | 172° |
| 2026-05-07 15:14 | 39.06522 | -80.19443 | 39021 ft | 456 kts | 172° |
| 2026-05-07 15:14 | 39.00828 | -80.15835 | 39021 ft | 456 kts | 173° |
| 2026-05-07 15:15 | 38.95134 | -80.12241 | 39011 ft | 455 kts | 173° |
| 2026-05-07 15:15 | 38.92268 | -80.10735 | 39004 ft | 434 kts | 181° |
| 2026-05-07 15:15 | 38.89417 | -80.09784 | 39007 ft | 414 kts | 189° |
| 2026-05-07 15:16 | 38.86623 | -80.09324 | 39003 ft | 399 kts | 194° |
| 2026-05-07 15:16 | 38.83856 | -80.09019 | 39000 ft | 399 kts | 194° |
| 2026-05-07 15:16 | 38.78316 | -80.08386 | 38992 ft | 400 kts | 194° |
| 2026-05-07 15:17 | 38.72770 | -80.07730 | 39003 ft | 400 kts | 194° |
| 2026-05-07 15:17 | 38.67224 | -80.07075 | 39008 ft | 400 kts | 194° |
| 2026-05-07 15:18 | 38.61679 | -80.06421 | 39004 ft | 400 kts | 194° |
| 2026-05-07 15:18 | 38.56122 | -80.05770 | 38999 ft | 401 kts | 194° |
| 2026-05-07 15:19 | 38.50594 | -80.05124 | 38994 ft | 402 kts | 193° |
| 2026-05-07 15:19 | 38.44991 | -80.04465 | 38998 ft | 402 kts | 194° |
| 2026-05-07 15:20 | 38.39431 | -80.03813 | 38995 ft | 401 kts | 194° |
| 2026-05-07 15:20 | 38.33862 | -80.03169 | 38990 ft | 403 kts | 194° |
| 2026-05-07 15:21 | 38.28284 | -80.02524 | 38980 ft | 402 kts | 194° |
| 2026-05-07 15:21 | 38.22707 | -80.01875 | 38971 ft | 402 kts | 194° |
| 2026-05-07 15:22 | 38.17135 | -80.01234 | 38970 ft | 402 kts | 194° |
| 2026-05-07 15:22 | 38.11569 | -80.00587 | 38966 ft | 402 kts | 194° |
| 2026-05-07 15:23 | 38.05993 | -79.99936 | 38953 ft | 402 kts | 194° |
| 2026-05-07 15:23 | 38.00413 | -79.99297 | 38960 ft | 403 kts | 193° |
| 2026-05-07 15:24 | 37.94828 | -79.98654 | 38952 ft | 404 kts | 194° |
| 2026-05-07 15:24 | 37.89233 | -79.98013 | 38949 ft | 404 kts | 194° |
| 2026-05-07 15:25 | 37.83633 | -79.97372 | 38958 ft | 405 kts | 194° |
| 2026-05-07 15:25 | 37.78023 | -79.96723 | 38956 ft | 405 kts | 193° |
| 2026-05-07 15:26 | 37.72416 | -79.96076 | 38952 ft | 405 kts | 193° |
| 2026-05-07 15:26 | 37.66846 | -79.95432 | 38947 ft | 405 kts | 193° |
| 2026-05-07 15:27 | 37.61239 | -79.94789 | 38948 ft | 405 kts | 193° |
| 2026-05-07 15:27 | 37.55627 | -79.94162 | 38949 ft | 405 kts | 193° |
| 2026-05-07 15:28 | 37.50009 | -79.93522 | 38957 ft | 406 kts | 193° |
| 2026-05-07 15:28 | 37.47192 | -79.93201 | 38662 ft | 407 kts | 193° |
| 2026-05-07 15:28 | 37.44363 | -79.92886 | 37948 ft | 408 kts | 193° |
| 2026-05-07 15:29 | 37.41537 | -79.92569 | 37341 ft | 407 kts | 193° |
| 2026-05-07 15:29 | 37.38725 | -79.92248 | 36712 ft | 405 kts | 193° |
| 2026-05-07 15:29 | 37.35908 | -79.91929 | 35962 ft | 407 kts | 193° |
| 2026-05-07 15:29 | 37.33078 | -79.91613 | 35175 ft | 410 kts | 192° |
| 2026-05-07 15:30 | 37.30221 | -79.91293 | 34452 ft | 413 kts | 192° |
| 2026-05-07 15:30 | 37.27343 | -79.90635 | 33989 ft | 432 kts | 181° |
| 2026-05-07 15:30 | 37.24476 | -79.89148 | 33317 ft | 462 kts | 167° |
| 2026-05-07 15:30 | 37.21797 | -79.86704 | 32664 ft | 492 kts | 152° |
| 2026-05-07 15:31 | 37.19489 | -79.83391 | 31951 ft | 512 kts | 141° |
| 2026-05-07 15:31 | 37.17299 | -79.79873 | 31246 ft | 511 kts | 141° |
| 2026-05-07 15:31 | 37.15119 | -79.76361 | 30549 ft | 510 kts | 141° |
| 2026-05-07 15:31 | 37.12943 | -79.72859 | 29818 ft | 508 kts | 141° |
| 2026-05-07 15:32 | 37.10778 | -79.69391 | 29234 ft | 501 kts | 141° |
| 2026-05-07 15:32 | 37.08632 | -79.65967 | 28525 ft | 496 kts | 141° |
| 2026-05-07 15:32 | 37.06520 | -79.62606 | 27794 ft | 488 kts | 141° |
| 2026-05-07 15:32 | 37.04438 | -79.59312 | 27177 ft | 477 kts | 141° |
| 2026-05-07 15:33 | 37.02402 | -79.56094 | 26582 ft | 466 kts | 141° |
| 2026-05-07 15:33 | 37.00410 | -79.52952 | 26018 ft | 459 kts | 141° |
| 2026-05-07 15:33 | 36.98419 | -79.49829 | 25448 ft | 458 kts | 141° |
| 2026-05-07 15:33 | 36.96431 | -79.46720 | 24875 ft | 457 kts | 141° |
| 2026-05-07 15:34 | 36.94447 | -79.43620 | 24280 ft | 456 kts | 141° |
| 2026-05-07 15:34 | 36.92470 | -79.40524 | 23690 ft | 456 kts | 140° |
| 2026-05-07 15:34 | 36.90513 | -79.37441 | 23065 ft | 449 kts | 140° |
| 2026-05-07 15:34 | 36.88597 | -79.34407 | 22425 ft | 440 kts | 140° |
| 2026-05-07 15:35 | 36.86727 | -79.31441 | 21837 ft | 429 kts | 140° |
| 2026-05-07 15:35 | 36.84902 | -79.28553 | 21269 ft | 418 kts | 140° |
| 2026-05-07 15:35 | 36.83115 | -79.25742 | 20713 ft | 410 kts | 140° |
| 2026-05-07 15:35 | 36.81347 | -79.22983 | 20162 ft | 404 kts | 140° |
| 2026-05-07 15:36 | 36.79603 | -79.20272 | 19620 ft | 398 kts | 140° |
| 2026-05-07 15:36 | 36.77877 | -79.17595 | 19089 ft | 395 kts | 140° |
| 2026-05-07 15:36 | 36.76162 | -79.14932 | 18545 ft | 392 kts | 139° |
| 2026-05-07 15:36 | 36.74457 | -79.12284 | 18021 ft | 389 kts | 139° |
| 2026-05-07 15:37 | 36.72781 | -79.09672 | 17580 ft | 383 kts | 139° |
| 2026-05-07 15:37 | 36.71123 | -79.07089 | 17059 ft | 381 kts | 139° |
| 2026-05-07 15:37 | 36.69443 | -79.04570 | 16630 ft | 371 kts | 144° |
| 2026-05-07 15:37 | 36.67538 | -79.02544 | 16232 ft | 352 kts | 156° |
| 2026-05-07 15:38 | 36.65454 | -79.01098 | 15843 ft | 335 kts | 167° |
| 2026-05-07 15:38 | 36.63304 | -79.00207 | 15474 ft | 319 kts | 177° |
| 2026-05-07 15:38 | 36.61159 | -78.99590 | 15119 ft | 314 kts | 177° |
| 2026-05-07 15:38 | 36.59044 | -78.98977 | 14762 ft | 310 kts | 176° |
| 2026-05-07 15:39 | 36.56952 | -78.98369 | 14412 ft | 307 kts | 176° |
| 2026-05-07 15:39 | 36.55582 | -78.97970 | 14174 ft | 305 kts | 176° |
| 2026-05-07 15:39 | 36.53518 | -78.97374 | 13822 ft | 304 kts | 175° |
| 2026-05-07 15:39 | 36.51455 | -78.96781 | 13442 ft | 304 kts | 175° |
| 2026-05-07 15:40 | 36.49401 | -78.96188 | 13081 ft | 302 kts | 175° |
| 2026-05-07 15:40 | 36.47357 | -78.95599 | 12725 ft | 301 kts | 175° |
| 2026-05-07 15:40 | 36.45323 | -78.95012 | 12368 ft | 299 kts | 174° |
| 2026-05-07 15:40 | 36.43298 | -78.94425 | 12009 ft | 298 kts | 174° |
| 2026-05-07 15:41 | 36.41289 | -78.93776 | 11644 ft | 301 kts | 167° |
| 2026-05-07 15:41 | 36.39394 | -78.92593 | 11272 ft | 310 kts | 152° |
| 2026-05-07 15:41 | 36.37757 | -78.90814 | 10894 ft | 316 kts | 139° |
| 2026-05-07 15:41 | 36.36228 | -78.88854 | 10510 ft | 316 kts | 139° |
| 2026-05-07 15:42 | 36.34699 | -78.86905 | 10134 ft | 315 kts | 139° |
| 2026-05-07 15:42 | 36.33168 | -78.84959 | 9744 ft | 315 kts | 139° |
| 2026-05-07 15:42 | 36.31647 | -78.83023 | 9335 ft | 311 kts | 139° |
| 2026-05-07 15:42 | 36.30158 | -78.81127 | 8961 ft | 301 kts | 139° |
| 2026-05-07 15:43 | 36.28770 | -78.79370 | 8595 ft | 291 kts | 139° |
| 2026-05-07 15:43 | 36.27375 | -78.77620 | 8231 ft | 280 kts | 139° |
| 2026-05-07 15:43 | 36.26036 | -78.75927 | 7882 ft | 270 kts | 138° |
| 2026-05-07 15:43 | 36.24746 | -78.74290 | 7540 ft | 260 kts | 138° |
| 2026-05-07 15:44 | 36.23518 | -78.72733 | 7218 ft | 253 kts | 138° |
| 2026-05-07 15:44 | 36.22300 | -78.71190 | 6905 ft | 249 kts | 138° |
| 2026-05-07 15:44 | 36.21090 | -78.69665 | 6590 ft | 248 kts | 138° |
| 2026-05-07 15:44 | 36.19884 | -78.68146 | 6267 ft | 247 kts | 137° |
| 2026-05-07 15:45 | 36.18652 | -78.66673 | 5933 ft | 244 kts | 143° |
| 2026-05-07 15:45 | 36.17327 | -78.65363 | 5601 ft | 243 kts | 143° |
| 2026-05-07 15:45 | 36.16015 | -78.64055 | 5277 ft | 242 kts | 143° |
| 2026-05-07 15:45 | 36.14707 | -78.62748 | 4954 ft | 241 kts | 142° |
| 2026-05-07 15:46 | 36.12080 | -78.60192 | 4282 ft | 239 kts | 149° |
| 2026-05-07 15:46 | 36.10549 | -78.59485 | 4035 ft | 232 kts | 172° |
| 2026-05-07 15:46 | 36.08950 | -78.59504 | 4007 ft | 230 kts | 193° |
| 2026-05-07 15:47 | 36.07395 | -78.60000 | 4004 ft | 232 kts | 197° |
| 2026-05-07 15:47 | 36.05839 | -78.60516 | 4006 ft | 232 kts | 197° |
| 2026-05-07 15:47 | 36.04281 | -78.61029 | 4005 ft | 232 kts | 197° |
| 2026-05-07 15:47 | 36.02742 | -78.61610 | 3946 ft | 231 kts | 207° |
| 2026-05-07 15:48 | 36.01493 | -78.62780 | 3743 ft | 224 kts | 226° |
| 2026-05-07 15:48 | 36.00407 | -78.64136 | 3461 ft | 219 kts | 227° |
| 2026-05-07 15:48 | 35.99365 | -78.65435 | 3221 ft | 205 kts | 226° |
| 2026-05-07 15:48 | 35.98383 | -78.66653 | 2920 ft | 195 kts | 227° |
| 2026-05-07 15:49 | 35.97446 | -78.67816 | 2676 ft | 189 kts | 227° |
| 2026-05-07 15:49 | 35.96525 | -78.68958 | 2422 ft | 185 kts | 227° |
| 2026-05-07 15:49 | 35.95621 | -78.70079 | 2185 ft | 180 kts | 227° |
| 2026-05-07 15:49 | 35.94784 | -78.71114 | 1961 ft | 162 kts | 226° |
| 2026-05-07 15:50 | 35.94021 | -78.72060 | 1754 ft | 149 kts | 226° |
| 2026-05-07 15:50 | 35.93300 | -78.72953 | 1556 ft | 144 kts | 225° |
| 2026-05-07 15:50 | 35.92604 | -78.73815 | 1364 ft | 141 kts | 225° |
| 2026-05-07 15:50 | 35.91914 | -78.74668 | 1177 ft | 138 kts | 225° |
| 2026-05-07 15:51 | 35.91251 | -78.75488 | 992 ft | 132 kts | 225° |
| 2026-05-07 15:51 | 35.90613 | -78.76275 | 805 ft | 128 kts | 224° |
| 2026-05-07 15:51 | 35.89989 | -78.77047 | 635 ft | 126 kts | 224° |
| 2026-05-07 15:51 | 35.89373 | -78.77815 | 416 ft | 125 kts | 224° |
| 2026-05-07 15:52 | 35.88816 | -78.78502 | 394 ft | 93 kts | 225° |
| 2026-05-07 15:52 | 35.88486 | -78.78914 | 391 ft | 44 kts | 225° |
| 2026-05-07 15:52 | 35.88357 | -78.79070 | 391 ft | 15 kts | 214° |
| 2026-05-07 15:52 | 35.88271 | -78.79062 | 391 ft | 11 kts | 148° |
| 2026-05-07 15:53 | 35.88225 | -78.79005 | 391 ft | 8 kts | 135° |
| 2026-05-07 15:53 | 35.88188 | -78.78986 | 392 ft | 4 kts | 198° |
| 2026-05-07 15:53 | 35.88171 | -78.79003 | 391 ft | 2 kts | 221° |
| 2026-05-07 15:53 | 35.88160 | -78.79016 | 392 ft | 3 kts | 225° |
| 2026-05-07 15:54 | 35.88127 | -78.79059 | 392 ft | 8 kts | 227° |
| 2026-05-07 15:54 | 35.88078 | -78.79122 | 392 ft | 12 kts | 225° |
| 2026-05-07 15:54 | 35.88025 | -78.79188 | 392 ft | 10 kts | 225° |
| 2026-05-07 15:54 | 35.87980 | -78.79243 | 392 ft | 8 kts | 224° |
| 2026-05-07 15:55 | 35.87947 | -78.79285 | 392 ft | 6 kts | 225° |
| 2026-05-07 15:55 | 35.87908 | -78.79333 | 392 ft | 10 kts | 225° |
| 2026-05-07 15:55 | 35.87845 | -78.79411 | 392 ft | 15 kts | 225° |
| 2026-05-07 15:55 | 35.87762 | -78.79512 | 392 ft | 17 kts | 225° |
| 2026-05-07 15:56 | 35.87687 | -78.79605 | 392 ft | 12 kts | 225° |
| 2026-05-07 15:56 | 35.87644 | -78.79636 | 392 ft | 4 kts | 146° |
| 2026-05-07 15:56 | 35.87630 | -78.79615 | 392 ft | 2 kts | 136° |
| 2026-05-07 15:56 | 35.87625 | -78.79610 | 392 ft | 0 kts | 137° |
| 2026-05-07 15:57 | 35.87622 | -78.79607 | 392 ft | 1 kts | 137° |
| 2026-05-07 15:57 | 35.87618 | -78.79602 | 392 ft | 1 kts | 136° |
| 2026-05-07 15:57 | 35.87614 | -78.79597 | 392 ft | 0 kts | 136° |
| 2026-05-07 15:57 | 35.87610 | -78.79592 | 392 ft | 0 kts | 136° |
| 2026-05-07 15:58 | 35.87609 | -78.79591 | 392 ft | 0 kts | 136° |